Lookout, Wyoming
Current Conditions -  °F | °C
As of 2:53 AM on Friday 31 Oct 2014 (Local Time) from KLAR Reporting Station
Clear Clear  
Wind Chill: 25°   Ceiling: Unl
Heat Index: 36°   Visibility: 10mi
Dew Point: 24°   Wind: 22mph
Humidity: 62%   Direction: 150°SSE
Pressure: 30.32"   Gusts: NA
Location:  41.5395°N, 105.861°W
Report Text: KLAR 310853Z AUTO 15019KT 10SM CLR 02/M04 A3032 RMK AO2 SLP214 T00221044 58014
Loading
Personal Weather Stations






























Interactive Weather Map New forecast layout! Learn more

10-Day Weather Forecast

Advertisements
Track Severe Weather on mobile